Time;durP1;ratioP1;P1;durP2;ratioP2;P2;SDS_P1;SDS_P2;PMS_P1;PMS_P2;Temp;Humidity;BMP_temperature;BMP_pressure;BME280_temperature;BME280_humidity;BME280_pressure;Samples;Min_cycle;Max_cycle;Signal;HPM_P1;HPM_P2
2022/07/22 00:03:16;;;;;;;10.33;4.37;;;;;14.10;101690.00;;;;10407537;28;20332;-79
2022/07/22 00:08:18;;;;;;;11.63;4.57;;;;;14.00;101680.00;;;;10430107;28;20651;-79
2022/07/22 00:13:20;;;;;;;14.80;4.67;;;;;13.90;101678.00;;;;10431189;28;20190;-79
2022/07/22 00:18:22;;;;;;;11.67;4.80;;;;;13.90;101684.00;;;;10445920;28;20904;-79
2022/07/22 00:23:24;;;;;;;7.33;4.33;;;;;13.90;101681.00;;;;10435135;28;20208;-79
2022/07/22 00:28:27;;;;;;;15.10;4.97;;;;;13.80;101681.00;;;;10462085;28;20206;-79
2022/07/22 00:33:30;;;;;;;14.00;6.03;;;;;13.70;101666.00;;;;10434236;28;20194;-78
2022/07/22 00:38:32;;;;;;;11.43;4.77;;;;;13.70;101673.00;;;;10434830;28;20186;-79
2022/07/22 00:44:08;;;;;;;13.97;4.80;;;;;13.60;101664.00;;;;10429038;28;20288;-79
2022/07/22 00:49:11;;;;;;;13.20;4.90;;;;;13.60;101666.00;;;;10426291;28;20210;-79
2022/07/22 00:54:14;;;;;;;13.00;5.77;;;;;13.50;101670.00;;;;10450397;28;20657;-79
2022/07/22 00:59:16;;;;;;;11.07;4.40;;;;;13.50;101661.00;;;;10444967;28;20245;-79
2022/07/22 01:04:18;;;;;;;12.10;4.70;;;;;13.40;101668.00;;;;10443060;28;20240;-79
2022/07/22 01:09:20;;;;;;;14.33;5.10;;;;;13.40;101653.00;;;;10458271;28;20236;-79
2022/07/22 01:14:22;;;;;;;12.77;5.17;;;;;13.30;101655.00;;;;10444023;28;20225;-79
2022/07/22 01:19:24;;;;;;;10.80;5.27;;;;;13.20;101650.00;;;;10476124;28;20200;-79
2022/07/22 01:24:27;;;;;;;12.37;5.53;;;;;13.30;101656.00;;;;10434648;28;20297;-78
2022/07/22 01:29:29;;;;;;;13.63;6.73;;;;;13.20;101648.00;;;;10414351;28;20703;-80
2022/07/22 01:34:32;;;;;;;10.03;4.97;;;;;13.20;101643.00;;;;10444178;28;20199;-80
2022/07/22 01:39:34;;;;;;;10.33;5.67;;;;;13.20;101645.00;;;;10415216;28;20669;-80
2022/07/22 01:44:36;;;;;;;11.20;5.73;;;;;13.10;101646.00;;;;10440039;28;20194;-80
2022/07/22 01:49:38;;;;;;;13.37;5.70;;;;;13.00;101643.00;;;;10446492;28;20273;-80
2022/07/22 01:54:40;;;;;;;14.03;5.67;;;;;13.00;101641.00;;;;10424776;28;20206;-80
2022/07/22 01:59:42;;;;;;;11.57;6.27;;;;;13.00;101632.00;;;;10456819;28;20221;-80
2022/07/22 02:04:45;;;;;;;14.87;6.63;;;;;13.00;101625.00;;;;10438652;28;20218;-80
2022/07/22 02:09:47;;;;;;;15.30;5.20;;;;;13.00;101620.00;;;;10444476;28;20729;-80
2022/07/22 02:14:49;;;;;;;10.97;5.10;;;;;12.90;101612.00;;;;10433301;28;20208;-80
2022/07/22 02:19:51;;;;;;;14.07;4.83;;;;;12.90;101609.00;;;;10422270;28;20189;-80
2022/07/22 02:24:53;;;;;;;9.50;5.33;;;;;12.80;101603.00;;;;10429768;28;20213;-80
2022/07/22 02:29:55;;;;;;;11.57;4.23;;;;;12.80;101613.00;;;;10443360;28;20202;-80
2022/07/22 02:34:57;;;;;;;10.73;5.30;;;;;12.70;101606.00;;;;10434110;28;20193;-81
2022/07/22 02:40:01;;;;;;;9.07;5.50;;;;;12.70;101617.00;;;;10426421;28;20193;-80
2022/07/22 02:45:04;;;;;;;15.43;5.27;;;;;12.60;101605.00;;;;10431076;28;20293;-80
2022/07/22 02:50:07;;;;;;;12.10;5.50;;;;;12.60;101606.00;;;;10445163;28;20260;-80
2022/07/22 02:55:10;;;;;;;18.33;6.57;;;;;12.50;101605.00;;;;10444120;28;20279;-80
2022/07/22 03:00:13;;;;;;;13.67;6.13;;;;;12.50;101615.00;;;;10450535;28;20217;-80
2022/07/22 03:05:15;;;;;;;12.87;6.00;;;;;12.40;101608.00;;;;10448804;28;20255;-80
2022/07/22 03:10:24;;;;;;;9.80;5.07;;;;;12.40;101608.00;;;;10453889;28;20190;-80
2022/07/22 03:15:26;;;;;;;12.20;6.00;;;;;12.40;101618.00;;;;10430549;28;20200;-80
2022/07/22 03:20:29;;;;;;;10.20;5.50;;;;;12.30;101622.00;;;;10431187;28;20263;-80
2022/07/22 03:25:32;;;;;;;15.67;6.60;;;;;12.30;101614.00;;;;10450299;28;20193;-80
2022/07/22 03:30:34;;;;;;;15.13;6.23;;;;;12.30;101608.00;;;;10466329;28;20200;-80
2022/07/22 03:35:36;;;;;;;7.67;5.53;;;;;12.20;101600.00;;;;10463898;28;20194;-80
2022/07/22 03:40:39;;;;;;;18.67;5.90;;;;;12.10;101605.00;;;;10448672;28;20205;-80
2022/07/22 03:45:42;;;;;;;13.33;6.27;;;;;12.10;101614.00;;;;10431690;28;20194;-80
2022/07/22 03:50:46;;;;;;;17.43;6.77;;;;;12.00;101604.00;;;;10448927;28;20214;-80
2022/07/22 03:55:50;;;;;;;16.07;6.50;;;;;12.10;101607.00;;;;10449276;28;20721;-80
2022/07/22 04:00:53;;;;;;;14.80;5.70;;;;;12.10;101609.00;;;;10435746;28;20243;-80
2022/07/22 04:05:56;;;;;;;16.77;6.43;;;;;12.10;101612.00;;;;10471351;28;20189;-80
2022/07/22 04:11:24;;;;;;;13.17;6.90;;;;;12.20;101612.00;;;;10447438;28;20197;-80
2022/07/22 04:16:26;;;;;;;13.93;7.63;;;;;12.20;101607.00;;;;10427861;28;20209;-80
2022/07/22 04:21:37;;;;;;;12.13;6.40;;;;;12.40;101601.00;;;;10448871;28;20194;-80
2022/07/22 04:26:43;;;;;;;14.43;7.27;;;;;12.50;101594.00;;;;10446983;28;20186;-80
2022/07/22 04:31:45;;;;;;;12.07;6.43;;;;;12.70;101588.00;;;;10454218;28;20193;-80
2022/07/22 04:36:51;;;;;;;16.10;7.03;;;;;12.80;101592.00;;;;10431152;28;20462;-80
2022/07/22 04:41:53;;;;;;;19.33;7.60;;;;;12.90;101588.00;;;;10437423;28;20204;-80
2022/07/22 04:46:56;;;;;;;17.17;7.10;;;;;13.10;101584.00;;;;10439294;28;20221;-80
2022/07/22 04:51:59;;;;;;;12.53;6.27;;;;;13.20;101590.00;;;;10446547;28;20197;-80
2022/07/22 04:57:11;;;;;;;15.33;6.63;;;;;13.50;101596.00;;;;10431546;28;20217;-80
2022/07/22 05:02:13;;;;;;;13.53;7.33;;;;;13.70;101581.00;;;;10460305;28;20221;-80
2022/07/22 05:07:16;;;;;;;20.77;8.50;;;;;14.00;101579.00;;;;10439568;28;20688;-80
2022/07/22 05:12:19;;;;;;;17.73;8.17;;;;;14.50;101583.00;;;;10426498;28;20224;-80
2022/07/22 05:17:21;;;;;;;18.27;8.67;;;;;14.80;101577.00;;;;10440538;28;20247;-80
2022/07/22 05:22:48;;;;;;;17.57;10.10;;;;;15.10;101571.00;;;;10452395;28;20568;-80
2022/07/22 05:27:56;;;;;;;24.73;10.10;;;;;15.50;101575.00;;;;10430654;28;20829;-80
2022/07/22 05:33:06;;;;;;;25.90;9.80;;;;;15.80;101572.00;;;;10423446;28;20245;-80
2022/07/22 05:38:27;;;;;;;20.98;10.48;;;;;16.20;101574.00;;;;10464919;28;20203;-80
2022/07/22 05:43:30;;;;;;;18.58;10.20;;;;;16.40;101578.00;;;;10430455;28;20200;-80
2022/07/22 05:48:33;;;;;;;19.30;11.38;;;;;16.80;101582.00;;;;10459332;28;20213;-80
2022/07/22 05:53:36;;;;;;;16.80;10.90;;;;;17.30;101586.00;;;;10443380;28;20242;-80
2022/07/22 05:58:40;;;;;;;20.83;11.80;;;;;17.90;101592.00;;;;10447043;28;20218;-80
2022/07/22 06:03:43;;;;;;;18.85;10.20;;;;;18.40;101590.00;;;;10459467;28;20304;-80
2022/07/22 06:08:48;;;;;;;14.15;10.07;;;;;18.90;101592.00;;;;10460156;28;20295;-80
2022/07/22 06:13:55;;;;;;;18.40;9.25;;;;;19.20;101592.00;;;;10448470;28;20186;-81
2022/07/22 06:18:58;;;;;;;17.52;9.02;;;;;19.60;101590.00;;;;10435014;28;20264;-80
2022/07/22 06:24:02;;;;;;;10.77;8.13;;;;;20.00;101613.00;;;;10429478;28;20209;-81
2022/07/22 06:29:04;;;;;;;17.00;8.32;;;;;20.50;101599.00;;;;10423603;28;20201;-80
2022/07/22 06:34:06;;;;;;;12.70;7.32;;;;;20.80;101601.00;;;;10455475;28;20243;-81
2022/07/22 06:39:27;;;;;;;13.05;7.82;;;;;20.90;101600.00;;;;10455908;28;20209;-80
2022/07/22 06:44:45;;;;;;;13.30;6.65;;;;;21.30;101597.00;;;;10434636;28;20199;-80
2022/07/22 06:49:57;;;;;;;9.60;5.63;;;;;21.30;101598.00;;;;10473519;28;20271;-80
2022/07/22 06:55:00;;;;;;;10.90;4.63;;;;;21.40;101601.00;;;;10437911;28;20220;-80
2022/07/22 07:00:09;;;;;;;7.68;3.83;;;;;21.80;101595.00;;;;10426579;28;20310;-80
2022/07/22 07:05:31;;;;;;;7.47;3.95;;;;;22.20;101596.00;;;;10467415;28;20193;-81
2022/07/22 07:10:33;;;;;;;6.65;3.63;;;;;22.80;101591.00;;;;10423459;28;20213;-80
2022/07/22 07:15:42;;;;;;;8.40;3.47;;;;;23.30;101599.00;;;;10446991;28;20194;-80
2022/07/22 07:20:44;;;;;;;4.63;3.08;;;;;23.10;101596.00;;;;10456310;28;20296;-81
2022/07/22 07:25:48;;;;;;;7.50;4.05;;;;;22.70;101595.00;;;;10433336;28;20198;-79
2022/07/22 07:30:53;;;;;;;5.50;4.20;;;;;22.60;101596.00;;;;10437176;28;20563;-80
2022/07/22 07:35:56;;;;;;;7.35;4.65;;;;;22.70;101584.00;;;;10418242;28;20200;-80
2022/07/22 07:41:18;;;;;;;8.38;4.38;;;;;23.10;101592.00;;;;10468957;28;20343;-81
2022/07/22 07:46:25;;;;;;;7.32;4.32;;;;;22.90;101581.00;;;;10443721;28;20193;-79
2022/07/22 07:51:29;;;;;;;8.80;4.50;;;;;23.20;101586.00;;;;10433226;28;20235;-77
2022/07/22 07:56:31;;;;;;;7.05;4.47;;;;;22.90;101583.00;;;;10416424;28;20205;-78
2022/07/22 08:01:33;;;;;;;8.98;5.22;;;;;22.70;101581.00;;;;10436781;28;20300;-78
2022/07/22 08:06:57;;;;;;;8.38;4.32;;;;;22.50;101589.00;;;;10430476;28;20197;-78
2022/07/22 08:11:59;;;;;;;7.25;4.32;;;;;22.30;101589.00;;;;10426955;28;20289;-78
2022/07/22 08:17:13;;;;;;;5.85;3.65;;;;;22.00;101586.00;;;;10428854;28;20206;-79
2022/07/22 08:22:16;;;;;;;7.72;4.57;;;;;22.00;101584.00;;;;10416127;28;20193;-80
2022/07/22 08:27:20;;;;;;;6.90;3.97;;;;;22.70;101569.00;;;;10427918;28;20198;-78
2022/07/22 08:32:24;;;;;;;6.15;3.80;;;;;23.20;101557.00;;;;10452631;28;20464;-78
2022/07/22 08:37:26;;;;;;;8.98;3.90;;;;;23.60;101564.00;;;;10430916;28;20919;-78
2022/07/22 08:42:29;;;;;;;5.45;3.38;;;;;24.90;101553.00;;;;10467548;28;20200;-78
2022/07/22 08:47:31;;;;;;;3.97;3.15;;;;;25.20;101541.00;;;;10419547;28;20196;-79
2022/07/22 08:53:11;;;;;;;6.63;3.10;;;;;25.40;101541.00;;;;10433949;28;20327;-79
2022/07/22 08:58:17;;;;;;;6.03;3.05;;;;;25.80;101538.00;;;;10446661;28;20778;-79
2022/07/22 09:03:27;;;;;;;5.85;3.50;;;;;26.60;101532.00;;;;10440957;28;20262;-80
2022/07/22 09:08:56;;;;;;;6.32;3.83;;;;;27.20;101537.00;;;;10439394;28;20193;-79
2022/07/22 09:14:17;;;;;;;5.32;3.40;;;;;27.60;101533.00;;;;10454886;28;20193;-80
2022/07/22 09:19:45;;;;;;;7.30;3.40;;;;;28.00;101525.00;;;;10421566;28;20259;-79
2022/07/22 09:25:19;;;;;;;5.05;3.45;;;;;28.40;101541.00;;;;10447769;28;20193;-79
2022/07/22 09:30:46;;;;;;;6.65;3.55;;;;;28.70;101528.00;;;;10457362;28;20189;-79
2022/07/22 09:35:51;;;;;;;6.82;3.80;;;;;28.90;101533.00;;;;10437989;28;20194;-78
2022/07/22 09:40:54;;;;;;;6.63;3.30;;;;;28.50;101529.00;;;;10440992;28;20205;-78
2022/07/22 09:45:57;;;;;;;6.68;3.88;;;;;28.10;101531.00;;;;10442925;28;20205;-79
2022/07/22 09:51:23;;;;;;;8.23;3.67;;;;;28.10;101525.00;;;;10435454;28;20251;-79
2022/07/22 09:56:45;;;;;;;4.75;3.70;;;;;27.80;101535.00;;;;10453905;28;20266;-79
2022/07/22 10:01:53;;;;;;;4.70;3.63;;;;;27.40;101522.00;;;;10421945;28;20217;-79
2022/07/22 10:06:56;;;;;;;6.32;3.75;;;;;27.30;101515.00;;;;10468798;28;20190;-79
2022/07/22 10:12:06;;;;;;;5.95;4.10;;;;;26.60;101522.00;;;;10448007;28;20219;-80
2022/07/22 10:17:13;;;;;;;5.55;3.83;;;;;26.00;101509.00;;;;10415486;28;20197;-79
2022/07/22 10:22:38;;;;;;;5.35;3.50;;;;;26.50;101507.00;;;;10433084;28;20667;-79
2022/07/22 10:27:57;;;;;;;5.78;3.85;;;;;27.60;101502.00;;;;10457971;28;20205;-79
2022/07/22 10:33:11;;;;;;;5.80;4.00;;;;;29.30;101496.00;;;;10432330;28;20226;-79
2022/07/22 10:38:13;;;;;;;5.78;3.75;;;;;29.00;101496.00;;;;10420844;28;20206;-79
2022/07/22 10:43:17;;;;;;;6.22;3.80;;;;;29.50;101491.00;;;;10420013;28;20657;-80
2022/07/22 10:48:24;;;;;;;9.18;4.10;;;;;30.00;101489.00;;;;10459794;28;20188;-80
2022/07/22 10:53:39;;;;;;;5.38;4.30;;;;;29.30;101483.00;;;;10467224;28;20190;-80
2022/07/22 10:58:44;;;;;;;8.82;4.47;;;;;29.70;101456.00;;;;10474524;28;20240;-79
2022/07/22 11:03:47;;;;;;;8.40;4.53;;;;;30.10;101461.00;;;;10431205;28;20217;-80
2022/07/22 11:08:55;;;;;;;6.35;4.10;;;;;29.70;101447.00;;;;10457646;28;20217;-80
2022/07/22 11:13:56;;;;;;;8.90;4.63;;;;;28.90;101437.00;;;;10426606;28;20263;-80
2022/07/22 11:19:01;;;;;;;5.70;4.07;;;;;28.90;101435.00;;;;10449144;28;20208;-80
2022/07/22 11:24:06;;;;;;;7.63;3.83;;;;;29.60;101417.00;;;;10472070;28;20189;-80
2022/07/22 11:29:09;;;;;;;6.03;4.05;;;;;29.80;101407.00;;;;10449029;28;20716;-80
2022/07/22 11:34:15;;;;;;;6.00;4.40;;;;;30.10;101399.00;;;;10447728;28;20556;-79
2022/07/22 11:39:28;;;;;;;5.40;4.13;;;;;30.30;101410.00;;;;10452099;28;20284;-79
2022/07/22 11:44:33;;;;;;;7.22;4.10;;;;;30.00;101397.00;;;;10434111;28;20305;-79
2022/07/22 11:49:38;;;;;;;6.15;4.25;;;;;29.50;101394.00;;;;10426149;28;20198;-80
2022/07/22 11:54:41;;;;;;;4.50;4.10;;;;;29.10;101394.00;;;;10434115;28;20186;-80
2022/07/22 11:59:44;;;;;;;9.30;4.38;;;;;28.70;101389.00;;;;10429906;28;20752;-80
2022/07/22 12:04:46;;;;;;;5.70;4.05;;;;;28.70;101382.00;;;;10416405;28;20315;-79
2022/07/22 12:09:49;;;;;;;8.85;3.92;;;;;28.60;101375.00;;;;10420644;28;20190;-80
2022/07/22 12:14:57;;;;;;;4.55;3.67;;;;;28.70;101392.00;;;;10422333;28;20189;-79
2022/07/22 12:20:12;;;;;;;5.72;3.97;;;;;28.90;101391.00;;;;10433756;28;20255;-80
2022/07/22 12:25:16;;;;;;;5.50;4.00;;;;;29.10;101385.00;;;;10462573;28;20197;-81
2022/07/22 12:30:18;;;;;;;9.40;4.03;;;;;29.50;101406.00;;;;10439023;28;20190;-80
2022/07/22 12:35:20;;;;;;;4.93;3.97;;;;;29.50;101395.00;;;;10446503;28;20213;-81
2022/07/22 12:40:22;;;;;;;5.97;4.20;;;;;29.00;101399.00;;;;10409878;28;20218;-81
2022/07/22 12:45:26;;;;;;;5.35;3.70;;;;;28.70;101385.00;;;;10426296;28;20565;-80
2022/07/22 12:50:38;;;;;;;6.25;3.75;;;;;28.80;101379.00;;;;10475171;28;20269;-79
2022/07/22 12:56:00;;;;;;;5.90;3.78;;;;;29.40;101371.00;;;;10440213;28;20240;-81
2022/07/22 13:01:03;;;;;;;5.90;4.00;;;;;29.40;101375.00;;;;10410984;28;20237;-80
2022/07/22 13:06:06;;;;;;;5.22;3.53;;;;;29.10;101371.00;;;;10435640;28;20209;-79
2022/07/22 13:11:09;;;;;;;5.90;4.05;;;;;29.50;101366.00;;;;10440742;28;20649;-79
2022/07/22 13:16:11;;;;;;;4.50;3.40;;;;;29.90;101359.00;;;;10425092;28;20239;-80
2022/07/22 13:21:13;;;;;;;6.80;3.90;;;;;31.00;101358.00;;;;10456197;28;20263;-80
2022/07/22 13:26:15;;;;;;;5.97;3.88;;;;;30.40;101375.00;;;;10461375;28;20296;-80
2022/07/22 13:31:17;;;;;;;6.63;4.18;;;;;29.80;101356.00;;;;10461079;28;20280;-80
2022/07/22 13:36:20;;;;;;;4.78;3.92;;;;;29.50;101367.00;;;;10457324;28;20197;-80
2022/07/22 13:41:22;;;;;;;6.35;4.13;;;;;29.30;101362.00;;;;10442890;28;20210;-80
2022/07/22 13:46:24;;;;;;;6.70;4.05;;;;;28.90;101371.00;;;;10451323;28;20198;-80
2022/07/22 13:51:26;;;;;;;5.88;4.10;;;;;29.00;101363.00;;;;10443583;28;20217;-80
2022/07/22 13:56:28;;;;;;;4.25;3.60;;;;;29.00;101344.00;;;;10475975;28;20247;-80
2022/07/22 14:01:31;;;;;;;5.85;3.72;;;;;29.20;101338.00;;;;10443026;28;20611;-79
2022/07/22 14:06:34;;;;;;;7.85;4.50;;;;;29.00;101330.00;;;;10438325;28;20255;-80
2022/07/22 14:11:36;;;;;;;7.57;4.15;;;;;28.60;101338.00;;;;10457656;28;20228;-79
2022/07/22 14:16:38;;;;;;;4.68;3.80;;;;;27.90;101336.00;;;;10442465;28;20667;-80
2022/07/22 14:22:00;;;;;;;6.47;4.28;;;;;27.90;101325.00;;;;10428580;28;20216;-79
2022/07/22 14:27:02;;;;;;;6.32;3.75;;;;;27.70;101318.00;;;;10445306;28;20727;-79
2022/07/22 14:32:04;;;;;;;7.07;4.38;;;;;27.90;101325.00;;;;10438272;28;20706;-80
2022/07/22 14:37:08;;;;;;;6.93;4.18;;;;;27.70;101320.00;;;;10427531;28;20240;-80
2022/07/22 14:42:10;;;;;;;8.00;4.72;;;;;26.90;101316.00;;;;10421327;28;20688;-80
2022/07/22 14:47:12;;;;;;;8.60;5.15;;;;;26.20;101297.00;;;;10446237;28;20272;-79
2022/07/22 14:52:14;;;;;;;4.82;3.97;;;;;25.90;101294.00;;;;10442613;28;20190;-79
2022/07/22 14:57:16;;;;;;;9.48;5.65;;;;;25.70;101294.00;;;;10448876;28;20216;-80
2022/07/22 15:02:20;;;;;;;12.32;6.07;;;;;25.80;101291.00;;;;10422569;28;20312;-79
2022/07/22 15:07:22;;;;;;;9.68;5.97;;;;;25.80;101299.00;;;;10462136;28;20268;-80
2022/07/22 15:12:28;;;;;;;8.75;5.53;;;;;25.80;101305.00;;;;10441868;28;20201;-79
2022/07/22 15:17:49;;;;;;;6.95;5.40;;;;;25.60;101300.00;;;;10449018;28;20221;-79
2022/07/22 15:22:51;;;;;;;5.25;4.75;;;;;25.40;101313.00;;;;10425349;28;20197;-78
2022/07/22 15:27:53;;;;;;;7.13;5.55;;;;;25.50;101315.00;;;;10448446;28;20189;-78
2022/07/22 15:33:17;;;;;;;10.43;5.95;;;;;25.50;101317.00;;;;10441120;28;20925;-79
2022/07/22 15:38:27;;;;;;;6.40;5.80;;;;;25.30;101310.00;;;;10452057;28;20217;-79
2022/07/22 15:43:29;;;;;;;8.75;6.68;;;;;25.40;101309.00;;;;10431524;28;20202;-79
2022/07/22 15:48:31;;;;;;;10.48;9.38;;;;;25.80;101307.00;;;;10433491;28;20190;-78
2022/07/22 15:53:34;;;;;;;9.93;8.15;;;;;25.60;101306.00;;;;10460457;28;20186;-78
2022/07/22 16:04:16;;;;;;;8.43;6.78;;;;;25.10;101287.00;;;;10486787;28;20205;-78
2022/07/22 16:09:18;;;;;;;13.43;7.57;;;;;24.90;101278.00;;;;10460048;28;20185;-78
2022/07/22 16:14:27;;;;;;;8.65;6.03;;;;;24.50;101284.00;;;;10462780;28;20194;-78
2022/07/22 16:19:29;;;;;;;11.27;7.00;;;;;24.00;101276.00;;;;10461439;28;20210;-78
2022/07/22 16:24:31;;;;;;;11.23;7.75;;;;;23.50;101265.00;;;;10472988;28;20452;-79
2022/07/22 16:29:33;;;;;;;10.00;7.00;;;;;23.30;101274.00;;;;10479076;28;20194;-79
2022/07/22 16:34:35;;;;;;;15.27;9.88;;;;;23.20;101272.00;;;;10416952;28;20250;-78
2022/07/22 16:39:37;;;;;;;17.90;13.98;;;;;23.00;101262.00;;;;10446280;28;20316;-78
2022/07/22 16:44:39;;;;;;;11.63;8.45;;;;;22.70;101261.00;;;;10434067;28;20190;-78
2022/07/22 16:49:41;;;;;;;17.70;14.73;;;;;22.50;101269.00;;;;10491815;28;20228;-80
2022/07/22 16:54:43;;;;;;;14.23;10.07;;;;;22.30;101273.00;;;;10434861;28;20198;-78
2022/07/22 16:59:52;;;;;;;13.98;8.05;;;;;22.30;101257.00;;;;10440212;28;20225;-79
2022/07/22 17:04:54;;;;;;;10.70;7.00;;;;;22.40;101265.00;;;;10461625;28;20247;-79
2022/07/22 17:09:56;;;;;;;11.07;7.20;;;;;22.40;101257.00;;;;10425520;28;20243;-79
2022/07/22 17:14:58;;;;;;;6.10;4.75;;;;;22.40;101259.00;;;;10470020;28;20201;-79
2022/07/22 17:20:00;;;;;;;9.05;5.35;;;;;22.30;101274.00;;;;10454181;28;20300;-79
2022/07/22 17:25:02;;;;;;;9.77;6.28;;;;;22.10;101292.00;;;;10426620;28;20202;-79
2022/07/22 17:30:04;;;;;;;7.40;5.40;;;;;21.70;101275.00;;;;10451957;28;20177;-79
2022/07/22 17:35:07;;;;;;;8.05;6.00;;;;;21.50;101286.00;;;;10450388;28;20262;-78
2022/07/22 17:40:09;;;;;;;9.73;5.40;;;;;21.30;101281.00;;;;10419175;28;20252;-78
2022/07/22 17:45:12;;;;;;;9.10;5.97;;;;;21.20;101270.00;;;;10389792;28;20205;-79
2022/07/22 17:50:14;;;;;;;8.27;6.05;;;;;21.20;101266.00;;;;10442782;28;20189;-78
2022/07/22 17:55:16;;;;;;;9.35;6.00;;;;;21.00;101277.00;;;;10444580;28;20193;-78
2022/07/22 18:00:18;;;;;;;13.25;7.43;;;;;20.70;101285.00;;;;10449527;28;20214;-78
2022/07/22 18:05:20;;;;;;;9.25;6.28;;;;;20.30;101268.00;;;;10435281;28;20264;-78
2022/07/22 18:10:22;;;;;;;9.10;6.50;;;;;20.10;101258.00;;;;10419182;28;20202;-78
2022/07/22 18:15:24;;;;;;;9.13;6.88;;;;;20.10;101265.00;;;;10415444;28;20219;-79
2022/07/22 18:20:26;;;;;;;10.85;7.95;;;;;19.70;101270.00;;;;10427593;28;20304;-79
2022/07/22 18:25:30;;;;;;;9.80;7.30;;;;;19.60;101267.00;;;;10433595;28;20717;-79
2022/07/22 18:30:32;;;;;;;11.55;7.35;;;;;19.70;101266.00;;;;10477694;28;20189;-79
2022/07/22 18:35:35;;;;;;;8.00;6.40;;;;;19.50;101280.00;;;;10485034;28;20189;-79
2022/07/22 18:40:37;;;;;;;11.30;8.40;;;;;19.20;101284.00;;;;10467582;28;20205;-79
2022/07/22 18:45:39;;;;;;;13.85;7.45;;;;;18.90;101300.00;;;;10451190;28;20194;-79
2022/07/22 18:50:42;;;;;;;12.52;9.43;;;;;18.80;101297.00;;;;10434730;28;20575;-79
2022/07/22 18:55:44;;;;;;;11.77;8.65;;;;;18.70;101285.00;;;;10434438;28;20228;-79
2022/07/22 19:00:46;;;;;;;12.27;8.80;;;;;18.60;101278.00;;;;10464259;28;20221;-79
2022/07/22 19:05:48;;;;;;;11.88;8.70;;;;;18.50;101284.00;;;;10450098;28;20666;-79
2022/07/22 19:10:50;;;;;;;13.07;9.30;;;;;18.30;101299.00;;;;10448285;28;20676;-79
2022/07/22 19:15:55;;;;;;;12.10;8.32;;;;;18.30;101296.00;;;;10476467;28;20216;-79
2022/07/22 19:20:57;;;;;;;9.68;7.75;;;;;18.20;101287.00;;;;10450737;28;20194;-79
2022/07/22 19:25:59;;;;;;;11.05;7.10;;;;;18.20;101291.00;;;;10458449;28;20229;-79
2022/07/22 19:31:01;;;;;;;8.80;6.90;;;;;18.20;101304.00;;;;10426176;28;20564;-80
2022/07/22 19:36:03;;;;;;;11.38;7.82;;;;;18.20;101294.00;;;;10441820;28;20197;-79
2022/07/22 19:41:07;;;;;;;12.98;6.93;;;;;18.20;101305.00;;;;10464422;28;20259;-79
2022/07/22 19:46:09;;;;;;;8.95;6.75;;;;;18.10;101316.00;;;;10432672;28;20675;-79
2022/07/22 19:51:11;;;;;;;13.55;7.53;;;;;18.00;101320.00;;;;10457230;28;20669;-79
2022/07/22 19:56:13;;;;;;;8.57;7.63;;;;;17.90;101327.00;;;;10463868;28;20203;-79
2022/07/22 20:01:15;;;;;;;10.63;6.97;;;;;17.90;101337.00;;;;10429481;28;20714;-80
2022/07/22 20:06:17;;;;;;;11.07;6.97;;;;;17.80;101360.00;;;;10417225;28;20190;-80
2022/07/22 20:11:19;;;;;;;12.20;7.97;;;;;17.70;101358.00;;;;10465379;28;20194;-80
2022/07/22 20:16:23;;;;;;;9.50;8.18;;;;;17.60;101361.00;;;;10464859;28;20193;-80
2022/07/22 20:21:25;;;;;;;8.88;7.47;;;;;17.60;101361.00;;;;10430468;28;20205;-80
2022/07/22 20:26:28;;;;;;;11.43;8.65;;;;;17.60;101356.00;;;;10447995;28;20197;-79
2022/07/22 20:31:30;;;;;;;10.10;7.82;;;;;17.50;101351.00;;;;10447076;28;20201;-80
2022/07/22 20:36:32;;;;;;;10.73;9.05;;;;;17.50;101356.00;;;;10440441;28;20284;-80
2022/07/22 20:41:34;;;;;;;12.15;8.80;;;;;17.40;101362.00;;;;10447493;28;20205;-80
2022/07/22 20:46:36;;;;;;;11.43;8.88;;;;;17.30;101360.00;;;;10423650;28;20289;-80
2022/07/22 20:51:39;;;;;;;14.00;8.80;;;;;17.20;101366.00;;;;10422775;28;20197;-80
2022/07/22 20:56:41;;;;;;;14.50;9.77;;;;;17.10;101360.00;;;;10406272;28;20210;-81
2022/07/22 21:01:42;;;;;;;15.93;9.70;;;;;17.00;101358.00;;;;10446373;28;20222;-80
2022/07/22 21:06:45;;;;;;;15.57;11.13;;;;;16.90;101341.00;;;;10478817;28;20198;-80
2022/07/22 21:11:47;;;;;;;14.00;10.87;;;;;16.80;101352.00;;;;10447755;28;20190;-81
2022/07/22 21:16:49;;;;;;;11.30;9.60;;;;;16.70;101355.00;;;;10438729;28;20198;-80
2022/07/22 21:21:51;;;;;;;12.25;10.70;;;;;16.60;101367.00;;;;10466443;28;20210;-81
2022/07/22 21:26:53;;;;;;;14.97;10.37;;;;;16.50;101364.00;;;;10463248;28;20190;-81
2022/07/22 21:31:55;;;;;;;13.45;10.40;;;;;16.40;101361.00;;;;10429995;28;20181;-80
2022/07/22 21:36:58;;;;;;;12.13;10.83;;;;;16.30;101364.00;;;;10428695;28;20198;-80
2022/07/22 21:42:00;;;;;;;12.97;11.03;;;;;16.20;101364.00;;;;10424507;28;20275;-80
2022/07/22 21:47:03;;;;;;;15.40;12.60;;;;;16.10;101357.00;;;;10436277;28;20217;-80
2022/07/22 21:52:05;;;;;;;15.68;12.52;;;;;16.10;101359.00;;;;10418588;28;20202;-80
2022/07/22 21:57:07;;;;;;;18.83;13.93;;;;;16.00;101359.00;;;;10417840;28;20571;-80
2022/07/22 22:02:09;;;;;;;15.67;13.23;;;;;16.00;101355.00;;;;10428104;28;20232;-80
2022/07/22 22:07:11;;;;;;;16.43;13.77;;;;;15.90;101356.00;;;;10445081;28;20193;-80
2022/07/22 22:12:13;;;;;;;16.33;13.43;;;;;15.80;101352.00;;;;10462107;28;20221;-79
2022/07/22 22:17:16;;;;;;;18.73;14.30;;;;;15.70;101345.00;;;;10442328;28;20658;-80
2022/07/22 22:22:18;;;;;;;17.43;13.83;;;;;15.60;101357.00;;;;10477537;28;20259;-80
2022/07/22 22:27:20;;;;;;;19.03;14.70;;;;;15.50;101362.00;;;;10444862;28;20194;-80
2022/07/22 22:32:22;;;;;;;18.43;15.57;;;;;15.50;101345.00;;;;10443607;28;20186;-80
2022/07/22 22:37:24;;;;;;;24.53;16.27;;;;;15.40;101358.00;;;;10419961;28;20248;-80
2022/07/22 22:42:26;;;;;;;17.23;15.37;;;;;15.40;101345.00;;;;10404371;28;20206;-80
2022/07/22 22:47:28;;;;;;;18.63;16.47;;;;;15.30;101343.00;;;;10440996;28;20189;-80
2022/07/22 22:52:30;;;;;;;20.63;17.27;;;;;15.20;101346.00;;;;10459098;28;20656;-80
2022/07/22 22:57:32;;;;;;;21.80;16.17;;;;;15.10;101350.00;;;;10401773;28;20235;-80
2022/07/22 23:02:34;;;;;;;20.10;16.23;;;;;15.10;101358.00;;;;10417406;28;20222;-80
2022/07/22 23:07:37;;;;;;;25.23;17.67;;;;;15.00;101361.00;;;;10442756;28;20202;-80
2022/07/22 23:12:38;;;;;;;20.50;17.57;;;;;14.90;101355.00;;;;10450221;28;20669;-80
2022/07/22 23:17:40;;;;;;;23.70;18.93;;;;;14.80;101357.00;;;;10446846;28;20243;-80
2022/07/22 23:22:42;;;;;;;25.90;18.73;;;;;14.80;101357.00;;;;10443405;28;20219;-80
2022/07/22 23:27:47;;;;;;;22.47;18.13;;;;;14.80;101361.00;;;;10482729;28;20236;-80
2022/07/22 23:32:49;;;;;;;24.60;18.90;;;;;14.70;101360.00;;;;10449414;28;20603;-80
2022/07/22 23:37:51;;;;;;;27.73;19.47;;;;;14.70;101362.00;;;;10439168;28;20186;-80
2022/07/22 23:42:53;;;;;;;26.03;19.10;;;;;14.60;101361.00;;;;10481612;28;20205;-80
2022/07/22 23:47:55;;;;;;;23.93;19.40;;;;;14.60;101359.00;;;;10450197;28;20280;-80
2022/07/22 23:52:58;;;;;;;22.80;18.07;;;;;14.50;101361.00;;;;10429728;28;20280;-80
2022/07/22 23:58:00;;;;;;;22.90;18.13;;;;;14.50;101349.00;;;;10460942;28;20205;-80
